Time;durP1;ratioP1;P1;durP2;ratioP2;P2;SDS_P1;SDS_P2;PMS_P1;PMS_P2;Temp;Humidity;BMP_temperature;BMP_pressure;BME280_temperature;BME280_humidity;BME280_pressure;Samples;Min_cycle;Max_cycle;Signal;HPM_P1;HPM_P2
2023/05/27 00:02:21;;;;;;;13.13;7.55;;;;;;;14.70;100.00;64503.63;5074038;28;20679;-56
2023/05/27 00:04:46;;;;;;;14.57;9.52;;;;;;;14.71;100.00;64504.16;5073889;28;20264;-56
2023/05/27 00:07:12;;;;;;;17.63;8.98;;;;;;;14.88;100.00;64522.84;5074190;28;20184;-57
2023/05/27 00:09:37;;;;;;;13.25;9.90;;;;;;;14.88;100.00;64523.41;5074136;28;20677;-57
2023/05/27 00:12:03;;;;;;;9.80;8.50;;;;;;;14.82;100.00;64514.28;5073930;28;20181;-59
2023/05/27 00:14:28;;;;;;;9.88;6.85;;;;;;;14.69;100.00;64501.97;5073946;28;20235;-60
2023/05/27 00:16:54;;;;;;;8.40;6.07;;;;;;;14.69;100.00;64504.50;5073729;28;20193;-59
2023/05/27 00:19:20;;;;;;;9.50;5.45;;;;;;;14.62;100.00;64494.28;5073859;28;20323;-58
2023/05/27 00:21:45;;;;;;;6.07;4.88;;;;;;;14.54;100.00;64486.03;5073760;28;20184;-59
2023/05/27 00:24:11;;;;;;;5.30;3.63;;;;;;;14.66;100.00;64498.66;5074002;28;20216;-59
2023/05/27 00:26:38;;;;;;;4.70;3.90;;;;;;;14.58;100.00;64489.88;5073609;28;20185;-59
2023/05/27 00:29:03;;;;;;;4.95;3.85;;;;;;;14.61;100.00;64493.72;5074170;28;20274;-58
2023/05/27 00:31:29;;;;;;;6.78;4.35;;;;;;;14.54;100.00;64488.03;5073756;28;20268;-59
2023/05/27 00:33:54;;;;;;;7.03;4.10;;;;;;;14.40;100.00;64472.63;5073332;28;20205;-57
2023/05/27 00:36:19;;;;;;;7.43;4.75;;;;;;;14.36;100.00;64463.16;5073766;28;20193;-59
2023/05/27 00:38:45;;;;;;;5.55;4.47;;;;;;;14.28;100.00;64458.00;5073337;28;20201;-57
2023/05/27 00:41:12;;;;;;;6.47;5.03;;;;;;;14.14;100.00;64444.59;5073358;28;20216;-59
2023/05/27 00:43:37;;;;;;;5.60;5.00;;;;;;;14.14;100.00;64445.13;5072993;28;20728;-58
2023/05/27 00:46:03;;;;;;;6.30;4.95;;;;;;;14.07;100.00;64434.94;5073306;28;20189;-57
2023/05/27 00:48:29;;;;;;;5.07;4.55;;;;;;;14.01;100.00;64425.25;5072349;28;20689;-57
2023/05/27 00:50:55;;;;;;;6.55;4.22;;;;;;;13.91;100.00;64419.34;5071605;28;20764;-58
2023/05/27 00:53:23;;;;;;;4.72;4.00;;;;;;;13.94;100.00;64420.09;5073517;28;20240;-58
2023/05/27 00:55:52;;;;;;;4.07;3.40;;;;;;;14.08;100.00;64438.00;5073098;28;20245;-55
2023/05/27 00:58:20;;;;;;;5.78;4.22;;;;;;;14.12;100.00;64440.41;5073258;28;20215;-57
2023/05/27 01:00:46;;;;;;;3.60;3.30;;;;;;;14.16;100.00;64447.34;5055558;28;20658;-57
2023/05/27 01:03:11;;;;;;;5.13;3.63;;;;;;;14.30;100.00;64459.66;5072963;28;20224;-58
2023/05/27 01:05:38;;;;;;;4.77;3.00;;;;;;;14.27;100.00;64453.81;5073012;28;20543;-57
2023/05/27 01:08:17;;;;;;;3.20;2.90;;;;;;;14.29;100.00;64458.56;5073119;28;20181;-58
2023/05/27 01:10:50;;;;;;;6.13;2.50;;;;;;;14.31;100.00;64460.75;5072915;28;20188;-60
2023/05/27 01:13:48;;;;;;;2.50;2.25;;;;;;;14.39;100.00;64469.53;5072841;28;20765;-59
2023/05/27 01:16:16;;;;;;;1.92;1.73;;;;;;;14.44;100.00;64477.03;5072929;28;20180;-60
2023/05/27 01:18:44;;;;;;;2.75;1.80;;;;;;;14.54;100.00;64482.94;5073087;28;20307;-57
2023/05/27 01:21:18;;;;;;;1.90;1.80;;;;;;;14.60;100.00;64492.06;5072646;28;20203;-58
2023/05/27 01:23:47;;;;;;;4.00;2.22;;;;;;;14.51;100.00;64485.28;5072872;28;20244;-56
2023/05/27 01:26:13;;;;;;;2.33;2.13;;;;;;;14.59;100.00;64490.97;5072719;28;20192;-57
2023/05/27 01:28:39;;;;;;;2.17;1.98;;;;;;;14.63;100.00;64498.47;5072505;28;20209;-59
2023/05/27 01:31:31;;;;;;;2.10;1.88;;;;;;;14.77;100.00;64513.28;5072585;28;20630;-57
2023/05/27 01:34:12;;;;;;;2.00;1.80;;;;;;;15.01;100.00;64535.16;5043687;28;20311;-56
2023/05/27 01:36:48;;;;;;;2.90;1.70;;;;;;;15.08;100.00;64545.41;5072658;28;20178;-57
2023/05/27 01:39:15;;;;;;;1.92;1.80;;;;;;;14.95;100.00;64530.53;5072758;28;20212;-56
2023/05/27 01:41:42;;;;;;;2.20;2.00;;;;;;;14.89;100.00;64523.94;5072402;28;20676;-59
2023/05/27 01:44:08;;;;;;;1.98;1.80;;;;;;;14.91;100.00;64529.22;5072342;28;20221;-57
2023/05/27 01:46:34;;;;;;;2.22;2.03;;;;;;;14.77;100.00;64510.75;5072154;28;20633;-58
2023/05/27 01:48:59;;;;;;;3.72;1.90;;;;;;;14.71;100.00;64504.72;5072203;28;20213;-58
2023/05/27 01:51:24;;;;;;;2.55;2.20;;;;;;;14.66;100.00;64499.22;5071777;28;20703;-59
2023/05/27 01:53:50;;;;;;;3.30;2.28;;;;;;;14.49;100.00;64483.06;5072144;28;20224;-59
2023/05/27 01:56:16;;;;;;;1.90;1.80;;;;;;;14.60;100.00;64492.63;5072050;28;20188;-57
2023/05/27 01:58:41;;;;;;;5.22;2.30;;;;;;;14.69;100.00;64502.50;5072334;28;20684;-56
2023/05/27 02:01:07;;;;;;;3.00;2.30;;;;;;;14.63;100.00;64492.81;5071924;28;20181;-57
2023/05/27 02:03:33;;;;;;;1.60;1.50;;;;;;;14.57;100.00;64489.31;5072034;28;20220;-57
2023/05/27 02:05:58;;;;;;;2.20;1.75;;;;;;;14.58;100.00;64492.97;5071912;28;20199;-57
2023/05/27 02:08:24;;;;;;;1.90;1.80;;;;;;;14.52;100.00;64486.38;5072004;28;20255;-58
2023/05/27 02:10:49;;;;;;;1.92;1.63;;;;;;;14.45;100.00;64476.13;5072074;28;20196;-59
2023/05/27 02:13:15;;;;;;;1.95;1.75;;;;;;;14.42;100.00;64472.84;5071940;28;20212;-59
2023/05/27 02:15:40;;;;;;;1.83;1.60;;;;;;;14.39;100.00;64472.09;5071833;28;20193;-58
2023/05/27 02:18:06;;;;;;;1.60;1.45;;;;;;;14.42;100.00;64475.38;5072126;28;20220;-60
2023/05/27 02:20:31;;;;;;;1.55;1.45;;;;;;;14.41;100.00;64474.28;5071877;28;20189;-59
2023/05/27 02:22:57;;;;;;;2.65;1.58;;;;;;;14.51;100.00;64479.66;5071636;28;20266;-59
2023/05/27 02:25:22;;;;;;;1.75;1.45;;;;;;;14.57;100.00;64486.78;5071633;28;20187;-59
2023/05/27 02:27:48;;;;;;;1.65;1.55;;;;;;;14.63;100.00;64498.47;5071841;28;20185;-58
2023/05/27 02:30:15;;;;;;;2.15;1.70;;;;;;;14.71;100.00;64507.25;5071683;28;20187;-59
2023/05/27 02:32:41;;;;;;;1.73;1.63;;;;;;;14.74;100.00;64508.03;5071484;28;20181;-60
2023/05/27 02:35:07;;;;;;;2.65;1.42;;;;;;;14.81;100.00;64515.69;5071304;28;20289;-60
2023/05/27 02:37:33;;;;;;;1.60;1.45;;;;;;;14.78;100.00;64509.88;5071328;28;20276;-59
2023/05/27 02:39:58;;;;;;;1.90;1.63;;;;;;;14.73;100.00;64504.38;5071548;28;20262;-60
2023/05/27 02:42:24;;;;;;;1.75;1.35;;;;;;;14.82;100.00;64519.34;5071275;28;20350;-59
2023/05/27 02:44:49;;;;;;;1.67;1.58;;;;;;;14.80;100.00;64514.63;5071542;28;20283;-55
2023/05/27 02:47:15;;;;;;;1.58;1.48;;;;;;;14.81;100.00;64517.69;5071372;28;20177;-57
2023/05/27 02:49:40;;;;;;;2.20;2.00;;;;;;;14.57;100.00;64486.22;5071390;28;20212;-59
2023/05/27 02:52:06;;;;;;;2.45;2.25;;;;;;;14.42;100.00;64470.31;5071272;28;20185;-59
2023/05/27 02:54:31;;;;;;;2.20;2.00;;;;;;;14.34;100.00;64466.59;5071183;28;20641;-58
2023/05/27 02:56:56;;;;;;;2.88;1.98;;;;;;;14.32;100.00;64461.88;5071218;28;20181;-60
2023/05/27 02:59:22;;;;;;;2.70;1.90;;;;;;;14.52;100.00;64480.75;5071065;28;20237;-60
2023/05/27 03:01:47;;;;;;;2.40;2.20;;;;;;;14.47;100.00;64478.34;5071301;28;20567;-60
2023/05/27 03:04:13;;;;;;;2.03;1.83;;;;;;;14.38;100.00;64471.00;5071520;28;20299;-61
2023/05/27 03:06:38;;;;;;;2.63;2.42;;;;;;;14.16;100.00;64444.81;5071126;28;20189;-60
2023/05/27 03:09:04;;;;;;;3.40;2.55;;;;;;;14.27;100.00;64461.41;5071492;28;20212;-57
2023/05/27 03:11:29;;;;;;;4.05;1.85;;;;;;;14.51;100.00;64485.28;5070428;28;20203;-59
2023/05/27 03:13:55;;;;;;;1.85;1.75;;;;;;;14.57;100.00;64486.78;5070960;28;20204;-56
2023/05/27 03:16:22;;;;;;;2.40;2.20;;;;;;;14.52;100.00;64485.81;5053407;28;20258;-56
2023/05/27 03:18:48;;;;;;;2.88;2.42;;;;;;;14.49;100.00;64480.53;5071133;28;20291;-56
2023/05/27 03:21:13;;;;;;;4.07;2.13;;;;;;;14.60;100.00;64492.63;5070935;28;20276;-57
2023/05/27 03:23:39;;;;;;;2.72;2.53;;;;;;;14.63;100.00;64495.91;5071252;28;20329;-57
2023/05/27 03:26:04;;;;;;;2.85;2.65;;;;;;;14.71;100.00;64507.25;5070928;28;20703;-60
2023/05/27 03:28:30;;;;;;;4.05;2.80;;;;;;;14.77;100.00;64511.31;5070717;28;20750;-57
2023/05/27 03:30:55;;;;;;;2.70;2.50;;;;;;;14.81;100.00;64515.69;5070856;28;20185;-58
2023/05/27 03:33:22;;;;;;;4.85;3.83;;;;;;;14.84;100.00;64519.00;5070909;28;20764;-58
2023/05/27 03:35:49;;;;;;;6.32;4.40;;;;;;;14.92;100.00;64527.81;5070649;28;20209;-58
2023/05/27 03:38:14;;;;;;;3.50;3.20;;;;;;;15.09;100.00;64546.47;5070963;28;20695;-57
2023/05/27 03:40:40;;;;;;;4.72;3.05;;;;;;;14.99;100.00;64535.50;5070950;28;20212;-58
2023/05/27 03:43:05;;;;;;;3.83;3.33;;;;;;;14.84;100.00;64519.00;5070536;28;20217;-60
2023/05/27 03:45:31;;;;;;;4.38;3.50;;;;;;;14.56;100.00;64488.25;5071006;28;20658;-59
2023/05/27 03:47:56;;;;;;;4.50;3.65;;;;;;;14.38;100.00;64468.47;5070867;28;20266;-60
2023/05/27 03:50:21;;;;;;;4.78;4.38;;;;;;;14.28;100.00;64460.53;5070812;28;20177;-60
2023/05/27 03:52:47;;;;;;;7.28;4.57;;;;;;;14.22;100.00;64456.47;5069333;28;20654;-59
2023/05/27 03:55:13;;;;;;;6.95;5.20;;;;;;;14.29;100.00;64458.56;5070683;28;20231;-59
2023/05/27 03:57:38;;;;;;;7.13;5.20;;;;;;;14.26;100.00;64455.25;5070530;28;20196;-60
2023/05/27 04:00:14;;;;;;;6.07;5.47;;;;;;;14.25;100.00;64454.69;5069251;28;20632;-60
2023/05/27 04:02:40;;;;;;;6.75;5.50;;;;;;;14.26;100.00;64455.25;5070384;28;20246;-58
2023/05/27 04:05:12;;;;;;;8.40;5.97;;;;;;;14.24;100.00;64451.06;5070652;28;20217;-57
2023/05/27 04:07:38;;;;;;;10.05;6.40;;;;;;;14.29;100.00;64461.66;5070490;28;20193;-57
2023/05/27 04:10:04;;;;;;;7.38;6.57;;;;;;;14.27;100.00;64459.44;5070575;28;20296;-58
2023/05/27 04:12:29;;;;;;;9.88;7.35;;;;;;;14.40;100.00;64472.63;5070601;28;20662;-59
2023/05/27 04:14:56;;;;;;;7.85;6.63;;;;;;;14.54;100.00;64486.03;5070403;28;20201;-60
2023/05/27 04:17:21;;;;;;;10.05;7.00;;;;;;;14.62;100.00;64496.81;5070332;28;20185;-60
2023/05/27 04:19:48;;;;;;;10.52;5.50;;;;;;;14.71;100.00;64501.63;5070186;28;20732;-60
2023/05/27 04:22:14;;;;;;;10.55;7.13;;;;;;;14.68;100.00;64501.44;5070229;28;20184;-59
2023/05/27 04:24:40;;;;;;;12.25;7.47;;;;;;;14.61;100.00;64491.19;5072424;28;20204;-58
2023/05/27 04:27:06;;;;;;;7.47;5.85;;;;;;;14.72;100.00;64505.25;5073746;28;20189;-57
2023/05/27 04:29:33;;;;;;;9.02;6.32;;;;;;;14.89;100.00;64521.97;5073621;28;20682;-57
2023/05/27 04:31:58;;;;;;;7.05;6.35;;;;;;;14.91;100.00;64526.13;5073544;28;20222;-58
2023/05/27 04:34:24;;;;;;;7.55;6.15;;;;;;;14.85;100.00;64519.53;5073985;28;20200;-57
2023/05/27 04:36:51;;;;;;;8.25;5.70;;;;;;;14.83;100.00;64520.44;5073851;28;20189;-57
2023/05/27 04:39:16;;;;;;;5.85;5.25;;;;;;;14.73;100.00;64506.91;5073687;28;20228;-56
2023/05/27 04:41:43;;;;;;;7.00;5.47;;;;;;;14.75;100.00;64508.56;5073696;28;20189;-57
2023/05/27 04:44:09;;;;;;;6.93;5.35;;;;;;;14.95;100.00;64533.63;5073585;28;20225;-57
2023/05/27 04:46:34;;;;;;;7.22;5.28;;;;;;;15.00;100.00;64536.59;5073603;28;20195;-57
2023/05/27 04:49:00;;;;;;;7.53;5.93;;;;;;;15.07;100.00;64543.72;5073281;28;20223;-58
2023/05/27 04:51:26;;;;;;;11.45;6.10;;;;;;;14.90;100.00;64527.59;5073367;28;20212;-59
2023/05/27 04:53:51;;;;;;;6.35;5.70;;;;;;;14.81;100.00;64517.69;5073602;28;20208;-59
2023/05/27 04:56:17;;;;;;;6.00;5.40;;;;;;;14.81;100.00;64515.69;5073312;28;20185;-58
2023/05/27 04:58:46;;;;;;;6.35;5.55;;;;;;;14.91;100.00;64523.59;5073179;28;20595;-58
2023/05/27 05:01:17;;;;;;;9.05;6.57;;;;;;;14.85;100.00;64517.56;5073113;28;20185;-58
2023/05/27 05:03:52;;;;;;;11.77;6.53;;;;;;;14.85;100.00;64522.63;5073479;28;20225;-55
2023/05/27 05:06:20;;;;;;;7.45;5.63;;;;;;;14.94;100.00;64527.47;5073424;28;20193;-55
2023/05/27 05:08:47;;;;;;;8.30;5.97;;;;;;;14.77;100.00;64510.75;5072993;28;20235;-59
2023/05/27 05:11:14;;;;;;;7.70;5.88;;;;;;;14.76;100.00;64507.13;5038517;28;20228;-61
2023/05/27 05:13:39;;;;;;;9.88;7.05;;;;;;;14.84;100.00;64521.00;5073053;28;20715;-57
2023/05/27 05:16:05;;;;;;;12.52;5.15;;;;;;;14.95;100.00;64531.09;5072973;28;20185;-57
2023/05/27 05:18:30;;;;;;;5.80;5.20;;;;;;;14.92;100.00;64527.81;5073163;28;20213;-57
2023/05/27 05:20:56;;;;;;;7.82;5.35;;;;;;;14.97;100.00;64532.72;5073070;28;20188;-57
2023/05/27 05:23:21;;;;;;;7.88;5.60;;;;;;;15.07;100.00;64546.25;5072987;28;20217;-59
2023/05/27 05:25:58;;;;;;;7.03;5.45;;;;;;;15.05;100.00;64542.09;5072915;28;20226;-59
2023/05/27 05:28:23;;;;;;;6.78;4.45;;;;;;;15.02;100.00;64538.78;5073453;28;20204;-58
2023/05/27 05:30:49;;;;;;;9.02;5.00;;;;;;;14.96;100.00;64531.66;5072765;28;20223;-58
2023/05/27 05:33:14;;;;;;;9.65;6.53;;;;;;;15.07;100.00;64546.81;5072791;28;20239;-59
2023/05/27 05:35:40;;;;;;;7.38;5.38;;;;;;;15.11;100.00;64548.13;5072247;28;20181;-59
2023/05/27 05:38:06;;;;;;;10.93;7.00;;;;;;;15.20;100.00;64555.50;5072742;28;20201;-59
2023/05/27 05:40:31;;;;;;;8.88;7.70;;;;;;;15.29;100.00;64567.38;5072582;28;20188;-58
2023/05/27 05:42:56;;;;;;;7.28;5.45;;;;;;;15.34;100.00;64575.41;5072774;28;20682;-57
2023/05/27 05:45:22;;;;;;;9.60;5.93;;;;;;;15.40;100.00;64582.00;5072473;28;20189;-56
2023/05/27 05:47:47;;;;;;;7.20;4.70;;;;;;;15.30;100.00;64569.03;5071244;28;20185;-56
2023/05/27 05:50:13;;;;;;;5.68;4.68;;;;;;;15.28;100.00;64566.81;5072451;28;20217;-59
2023/05/27 05:52:38;;;;;;;4.45;3.47;;;;;;;15.23;100.00;64561.31;5072374;28;20589;-55
2023/05/27 05:55:05;;;;;;;4.72;3.58;;;;;;;15.36;100.00;64575.06;5072298;28;20204;-57
2023/05/27 05:57:32;;;;;;;4.68;4.10;;;;;;;15.39;100.00;64576.38;5072273;28;20197;-55
2023/05/27 05:59:58;;;;;;;4.90;3.55;;;;;;;15.46;100.00;64583.56;5072443;28;20685;-59
2023/05/27 06:02:25;;;;;;;7.28;3.40;;;;;;;15.40;100.00;64582.00;5054236;28;20212;-58
2023/05/27 06:04:50;;;;;;;7.00;3.72;;;;;;;15.43;100.00;64580.25;5072341;28;20213;-58
2023/05/27 06:07:16;;;;;;;5.80;4.15;;;;;;;15.40;100.00;64582.00;5072395;28;20185;-59
2023/05/27 06:09:41;;;;;;;4.63;3.85;;;;;;;15.53;100.00;64588.72;5072291;28;20240;-58
2023/05/27 06:12:07;;;;;;;9.68;4.10;;;;;;;15.51;100.00;64591.59;5072250;28;20185;-59
2023/05/27 06:14:32;;;;;;;6.88;4.45;;;;;;;15.60;100.00;64601.50;5072346;28;20442;-58
2023/05/27 06:16:57;;;;;;;5.68;4.20;;;;;;;15.66;100.00;64608.66;5072222;28;20192;-59
2023/05/27 06:19:23;;;;;;;6.25;4.50;;;;;;;15.75;100.00;64618.56;5072068;28;20736;-58
2023/05/27 06:21:48;;;;;;;8.40;4.65;;;;;;;15.71;100.00;64614.16;5072045;28;20177;-60
2023/05/27 06:24:15;;;;;;;9.63;4.72;;;;;;;15.88;100.00;64632.28;5072212;28;20297;-59
2023/05/27 06:26:40;;;;;;;9.00;5.53;;;;;;;15.97;100.00;64639.66;5071899;28;20193;-60
2023/05/27 06:29:05;;;;;;;5.35;4.75;;;;;;;15.92;100.00;64636.69;5071769;28;20228;-58
2023/05/27 06:31:32;;;;;;;6.68;4.85;;;;;;;15.91;100.00;64636.16;5071854;28;20193;-59
2023/05/27 06:33:58;;;;;;;8.05;5.40;;;;;;;15.96;100.00;64638.56;5072184;28;20205;-58
2023/05/27 06:36:23;;;;;;;8.50;5.30;;;;;;;15.91;100.00;64636.16;5071894;28;20177;-57
2023/05/27 06:38:49;;;;;;;13.73;6.20;;;;;;;15.98;100.00;64645.31;5071811;28;20283;-57
2023/05/27 06:41:14;;;;;;;18.13;6.38;;;;;;;16.26;100.00;64671.56;5071622;28;20181;-58
2023/05/27 06:43:40;;;;;;;17.05;5.32;;;;;;;16.21;100.00;64666.06;5071597;28;20294;-57
2023/05/27 06:46:06;;;;;;;10.15;5.35;;;;;;;16.09;100.00;64652.88;5070960;28;20735;-58
2023/05/27 06:48:31;;;;;;;7.03;5.30;;;;;;;16.21;100.00;64666.06;5071269;28;20215;-58
2023/05/27 06:50:57;;;;;;;9.23;5.55;;;;;;;16.13;100.00;64659.81;5071385;28;20638;-58
2023/05/27 06:53:22;;;;;;;7.25;5.60;;;;;;;16.25;100.00;64670.47;5071764;28;20287;-57
2023/05/27 06:55:48;;;;;;;12.05;5.95;;;;;;;16.21;100.00;64668.63;5071494;28;20188;-56
2023/05/27 06:58:13;;;;;;;7.70;5.18;;;;;;;16.26;100.00;64673.56;5071556;28;20217;-57
2023/05/27 07:00:38;;;;;;;9.45;5.78;;;;;;;16.33;100.00;64681.28;5071636;28;20712;-56
2023/05/27 07:03:04;;;;;;;8.00;5.38;;;;;;;16.36;100.00;64682.56;5071274;28;20561;-56
2023/05/27 07:05:29;;;;;;;8.93;5.72;;;;;;;16.38;100.00;64689.88;5071338;28;20188;-57
2023/05/27 07:07:54;;;;;;;8.38;5.72;;;;;;;16.49;100.00;64696.34;5071373;28;20205;-57
2023/05/27 07:10:20;;;;;;;8.98;6.28;;;;;;;16.32;100.00;64683.25;5071529;28;20234;-58
2023/05/27 07:12:45;;;;;;;9.07;5.78;;;;;;;16.49;100.00;64696.34;5069927;28;20288;-56
2023/05/27 07:15:11;;;;;;;13.75;5.55;;;;;;;16.56;100.00;64707.16;5070935;28;20185;-64
2023/05/27 07:17:36;;;;;;;8.18;5.72;;;;;;;16.59;100.00;64707.94;5070875;28;20221;-62
2023/05/27 07:20:02;;;;;;;8.18;5.28;;;;;;;16.65;100.00;64717.06;5071044;28;20287;-56
2023/05/27 07:22:27;;;;;;;8.30;5.32;;;;;;;16.77;100.00;64730.28;5070770;28;20254;-56
2023/05/27 07:24:53;;;;;;;13.63;5.78;;;;;;;16.68;100.00;64717.81;5070955;28;20220;-56
2023/05/27 07:27:18;;;;;;;9.80;6.82;;;;;;;16.81;100.00;64736.16;5070818;28;20208;-58
2023/05/27 07:29:45;;;;;;;8.63;6.38;;;;;;;16.94;100.00;64747.91;5070589;28;20754;-56
2023/05/27 07:32:10;;;;;;;10.00;7.07;;;;;;;17.30;100.00;64785.03;5070988;28;20256;-60
2023/05/27 07:34:36;;;;;;;16.73;6.35;;;;;;;17.87;100.00;64850.41;5071091;28;20702;-58
2023/05/27 07:37:01;;;;;;;8.07;6.00;;;;;;;18.30;100.00;64895.28;5070960;28;20658;-58
2023/05/27 07:39:27;;;;;;;9.55;6.43;;;;;;;17.91;100.00;64851.72;5071118;28;20775;-58
2023/05/27 07:41:52;;;;;;;9.25;6.28;;;;;;;17.84;100.00;64847.09;5071016;28;20633;-58
2023/05/27 07:44:18;;;;;;;12.13;6.18;;;;;;;17.81;100.00;64843.25;5070953;28;20713;-55
2023/05/27 07:46:44;;;;;;;11.05;6.22;;;;;;;17.76;100.00;64835.72;5070889;28;20184;-54
2023/05/27 07:49:09;;;;;;;11.77;6.03;;;;;;;18.02;100.00;64866.38;5070604;28;20242;-58
2023/05/27 07:51:36;;;;;;;7.95;6.05;;;;;;;17.90;100.00;64853.72;5070669;28;20638;-57
2023/05/27 07:54:01;;;;;;;11.13;6.05;;;;;;;17.79;100.00;64841.03;5070871;28;20216;-57
2023/05/27 07:56:27;;;;;;;11.07;6.55;;;;;;;17.58;100.00;64819.00;5070740;28;20183;-57
2023/05/27 07:58:52;;;;;;;6.35;5.63;;;;;;;17.44;100.00;64800.44;5073106;28;20217;-58
2023/05/27 08:01:17;;;;;;;10.70;5.28;;;;;;;17.48;100.00;64810.50;5056543;28;20186;-57
2023/05/27 08:03:43;;;;;;;7.50;5.45;;;;;;;17.45;100.00;64804.66;5074387;28;20297;-59
2023/05/27 08:06:08;;;;;;;11.73;5.93;;;;;;;17.51;100.00;64808.19;5074190;28;20254;-59
2023/05/27 08:08:34;;;;;;;9.18;5.65;;;;;;;17.46;100.00;64803.22;5074148;28;20228;-58
2023/05/27 08:10:59;;;;;;;16.23;5.63;;;;;;;17.59;100.00;64819.56;5074198;28;20683;-57
2023/05/27 08:13:25;;;;;;;7.10;5.88;;;;;;;17.59;100.00;64817.00;5074041;28;20234;-56
2023/05/27 08:15:50;;;;;;;6.90;4.70;;;;;;;17.82;100.00;64844.91;5073946;28;20195;-56
2023/05/27 08:18:16;;;;;;;7.07;5.30;;;;;;;17.78;100.00;64837.94;5073777;28;20200;-55
2023/05/27 08:20:41;;;;;;;10.95;5.90;;;;;;;17.81;100.00;64840.69;5073877;28;20216;-55
2023/05/27 08:23:07;;;;;;;7.07;4.85;;;;;;;17.88;100.00;64848.41;5073770;28;20590;-55
2023/05/27 08:25:32;;;;;;;6.38;4.82;;;;;;;17.90;100.00;64851.16;5073800;28;20223;-54
2023/05/27 08:28:01;;;;;;;9.40;4.97;;;;;;;17.98;100.00;64862.53;5073929;28;20251;-56
2023/05/27 08:30:28;;;;;;;7.30;4.30;;;;;;;18.03;100.00;64864.94;5073754;28;20184;-55
2023/05/27 08:32:54;;;;;;;7.75;4.30;;;;;;;18.01;100.00;64863.31;5073605;28;20192;-54
2023/05/27 08:35:19;;;;;;;7.75;4.70;;;;;;;17.90;100.00;64853.72;5073841;28;20193;-54
2023/05/27 08:37:45;;;;;;;7.38;4.40;;;;;;;17.82;100.00;64842.34;5073829;28;20185;-55
2023/05/27 08:40:14;;;;;;;9.57;4.78;;;;;;;17.77;100.00;64836.28;5073640;28;20192;-55
2023/05/27 08:42:40;;;;;;;6.15;4.13;;;;;;;17.66;100.00;64824.72;5073669;28;20217;-55
2023/05/27 08:45:06;;;;;;;8.32;4.70;;;;;;;17.75;100.00;64834.66;5073418;28;20209;-58
2023/05/27 08:47:31;;;;;;;5.05;3.95;;;;;;;17.80;100.00;64839.59;5073669;28;20650;-54
2023/05/27 08:50:00;;;;;;;6.75;4.00;;;;;;;17.80;100.00;64840.16;5073456;28;20208;-53
2023/05/27 08:52:27;;;;;;;5.13;4.25;;;;;;;17.97;100.00;64858.34;5073398;28;20181;-59
2023/05/27 08:54:56;;;;;;;4.60;3.90;;;;;;;18.12;100.00;64875.41;5073368;28;20197;-54
2023/05/27 08:57:25;;;;;;;6.93;4.97;;;;;;;17.86;99.68;64849.31;5073361;28;20326;-60
2023/05/27 08:59:51;;;;;;;4.95;4.28;;;;;;;17.77;100.00;64839.41;5073184;28;20269;-56
2023/05/27 09:02:18;;;;;;;5.28;4.13;;;;;;;17.82;99.28;64844.34;5073032;28;20669;-56
2023/05/27 09:04:45;;;;;;;6.40;4.38;;;;;;;17.86;100.00;64846.75;5073399;28;20219;-56
2023/05/27 09:07:11;;;;;;;5.15;3.90;;;;;;;17.93;99.17;64857.03;5073493;28;20176;-59
2023/05/27 09:09:36;;;;;;;7.10;4.95;;;;;;;17.82;100.00;64842.34;5072619;28;20219;-58
2023/05/27 09:12:03;;;;;;;7.13;4.78;;;;;;;17.88;100.00;64848.97;5073267;28;20279;-57
2023/05/27 09:14:29;;;;;;;7.30;4.90;;;;;;;17.94;100.00;64855.03;5073265;28;20248;-58
2023/05/27 09:16:55;;;;;;;4.97;4.28;;;;;;;18.08;100.00;64870.47;5072846;28;20223;-56
2023/05/27 09:19:21;;;;;;;6.72;4.47;;;;;;;18.27;100.00;64891.41;5073040;28;20243;-57
2023/05/27 09:21:52;;;;;;;6.03;3.90;;;;;;;18.19;100.00;64882.59;5073056;28;20251;-57
2023/05/27 09:24:18;;;;;;;7.55;4.45;;;;;;;18.11;100.00;64874.31;5073187;28;20286;-57
2023/05/27 09:26:43;;;;;;;6.90;4.35;;;;;;;18.18;98.66;64881.50;5072925;28;20180;-59
2023/05/27 09:29:09;;;;;;;7.70;4.25;;;;;;;18.23;100.00;64887.56;5073038;28;20212;-54
2023/05/27 09:31:41;;;;;;;7.13;4.80;;;;;;;18.52;100.00;64919.03;5072961;28;20250;-56
2023/05/27 09:34:16;;;;;;;6.05;4.88;;;;;;;18.60;100.00;64927.28;5073055;28;20204;-54
2023/05/27 09:36:48;;;;;;;8.43;4.35;;;;;;;18.87;99.74;64954.50;5072660;28;20213;-54
2023/05/27 09:39:14;;;;;;;5.97;4.20;;;;;;;19.02;96.79;64973.63;5072751;28;20208;-58
2023/05/27 09:41:41;;;;;;;6.00;4.30;;;;;;;19.15;94.91;64987.97;5072635;28;20319;-58
2023/05/27 09:44:07;;;;;;;5.10;3.95;;;;;;;19.25;95.01;64999.00;5072437;28;20713;-57
2023/05/27 09:46:33;;;;;;;6.10;4.43;;;;;;;19.16;90.98;64987.06;5054855;28;20193;-57
2023/05/27 09:49:03;;;;;;;9.55;5.38;;;;;;;19.26;92.26;65000.13;5072426;28;20208;-57
2023/05/27 09:51:29;;;;;;;6.05;4.40;;;;;;;19.34;90.61;65010.97;5072873;28;20670;-58
2023/05/27 09:53:57;;;;;;;7.13;4.50;;;;;;;19.72;94.31;65050.38;5072644;28;20716;-57
2023/05/27 09:56:27;;;;;;;6.10;4.50;;;;;;;19.86;92.86;65061.25;5072307;28;20196;-61
2023/05/27 09:58:57;;;;;;;5.95;4.53;;;;;;;19.82;90.77;65061.97;5072616;28;20224;-56
2023/05/27 10:01:29;;;;;;;5.40;4.50;;;;;;;19.94;89.59;65074.66;5072415;28;20181;-56
2023/05/27 10:03:59;;;;;;;8.75;4.50;;;;;;;20.13;87.83;65095.09;5072389;28;20216;-57
2023/05/27 10:06:29;;;;;;;9.60;4.30;;;;;;;20.24;88.34;65104.72;5072260;28;20287;-56
2023/05/27 10:08:57;;;;;;;6.05;4.88;;;;;;;20.37;87.65;65122.19;5072589;28;20697;-54
2023/05/27 10:11:26;;;;;;;6.80;4.65;;;;;;;20.72;86.77;65157.75;5072170;28;20272;-54
2023/05/27 10:13:52;;;;;;;6.50;5.05;;;;;;;20.77;84.91;65165.84;5072349;28;20209;-54
2023/05/27 10:16:23;;;;;;;5.45;4.65;;;;;;;20.82;86.00;65171.38;5071775;28;20761;-55
2023/05/27 10:18:53;;;;;;;6.18;4.82;;;;;;;20.89;86.84;65179.09;5072022;28;20219;-53
2023/05/27 10:21:26;;;;;;;16.08;5.10;;;;;;;20.99;85.68;65187.59;5071114;28;20214;-54
2023/05/27 10:23:57;;;;;;;5.50;4.68;;;;;;;21.01;86.43;65192.38;5071930;28;20244;-55
2023/05/27 10:26:45;;;;;;;5.85;4.70;;;;;;;21.18;84.74;65208.06;5072354;28;20196;-55
2023/05/27 10:29:13;;;;;;;9.75;4.47;;;;;;;21.23;85.67;65213.63;5071901;28;20205;-57
2023/05/27 10:31:51;;;;;;;7.28;4.68;;;;;;;21.42;85.82;65237.19;5071794;28;20184;-57
2023/05/27 10:34:17;;;;;;;8.13;4.50;;;;;;;21.53;84.75;65246.78;5072277;28;20208;-55
2023/05/27 10:36:46;;;;;;;4.75;4.35;;;;;;;21.77;81.20;65275.34;5071641;28;20612;-56
2023/05/27 10:39:17;;;;;;;5.25;4.75;;;;;;;21.60;77.62;65257.66;5071933;28;20213;-56
2023/05/27 10:41:51;;;;;;;5.75;4.80;;;;;;;21.24;78.68;65217.84;5071627;28;20188;-60
2023/05/27 10:44:46;;;;;;;6.95;4.80;;;;;;;21.17;77.98;65204.41;5054061;28;20220;-57
2023/05/27 10:47:16;;;;;;;6.18;4.22;;;;;;;20.75;80.83;65161.06;5058478;28;20201;-59
2023/05/27 10:49:46;;;;;;;5.75;4.43;;;;;;;20.85;81.21;65172.13;5071477;28;20741;-58
2023/05/27 10:52:13;;;;;;;6.97;4.40;;;;;;;20.80;80.15;65169.72;5071484;28;20189;-60
2023/05/27 10:54:41;;;;;;;5.95;4.13;;;;;;;20.79;81.19;65168.59;5071357;28;20270;-54
2023/05/27 10:57:07;;;;;;;7.72;4.43;;;;;;;20.84;84.01;65171.59;5071660;28;20185;-54
2023/05/27 10:59:47;;;;;;;7.18;4.75;;;;;;;20.59;82.31;65145.94;5071603;28;20216;-54
2023/05/27 11:02:13;;;;;;;6.10;4.70;;;;;;;20.56;83.51;65143.19;5071266;28;20224;-54
2023/05/27 11:04:38;;;;;;;5.18;4.68;;;;;;;20.45;83.83;65127.91;5071688;28;20233;-58
2023/05/27 11:07:04;;;;;;;6.22;4.20;;;;;;;20.40;81.97;65124.97;5071283;28;20180;-59
2023/05/27 11:09:50;;;;;;;7.55;4.93;;;;;;;20.56;81.49;65142.63;5071297;28;20216;-59
2023/05/27 11:12:18;;;;;;;6.32;4.80;;;;;;;20.45;83.48;65130.47;5070880;28;20200;-60
2023/05/27 11:14:48;;;;;;;6.05;5.00;;;;;;;20.34;86.57;65121.44;5071124;28;20219;-59
2023/05/27 11:17:14;;;;;;;5.38;4.13;;;;;;;20.52;85.66;65138.75;5071293;28;20275;-59
2023/05/27 11:19:40;;;;;;;5.35;4.85;;;;;;;20.71;84.37;65154.63;5070740;28;20697;-58
2023/05/27 11:22:08;;;;;;;5.18;4.68;;;;;;;21.04;82.77;65195.16;5071101;28;20187;-58
2023/05/27 11:24:36;;;;;;;9.43;5.28;;;;;;;21.14;82.48;65206.22;5071196;28;20646;-54
2023/05/27 11:27:11;;;;;;;6.43;4.72;;;;;;;21.15;84.43;65204.78;5071003;28;20189;-55